sensor_id;sensor_type;location;lat;lon;timestamp;P1;durP1;ratioP1;P2;durP2;ratioP2
85807;SDS011;76250;48.718;9.000;2024-02-21T00:00:24;4.77;;;3.83;;
85807;SDS011;76250;48.718;9.000;2024-02-21T00:02:51;4.77;;;3.77;;
85807;SDS011;76250;48.718;9.000;2024-02-21T00:05:20;3.90;;;3.50;;
85807;SDS011;76250;48.718;9.000;2024-02-21T00:07:48;4.03;;;3.20;;
85807;SDS011;76250;48.718;9.000;2024-02-21T00:10:16;5.10;;;3.93;;
85807;SDS011;76250;48.718;9.000;2024-02-21T00:12:44;4.33;;;3.37;;
85807;SDS011;76250;48.718;9.000;2024-02-21T00:15:12;3.97;;;2.90;;
85807;SDS011;76250;48.718;9.000;2024-02-21T00:17:40;4.60;;;3.27;;
85807;SDS011;76250;48.718;9.000;2024-02-21T00:20:08;4.77;;;3.50;;
85807;SDS011;76250;48.718;9.000;2024-02-21T00:22:36;3.90;;;2.80;;
85807;SDS011;76250;48.718;9.000;2024-02-21T00:25:05;4.17;;;3.07;;
85807;SDS011;76250;48.718;9.000;2024-02-21T00:27:33;4.00;;;3.17;;
85807;SDS011;76250;48.718;9.000;2024-02-21T00:30:01;4.77;;;2.90;;
85807;SDS011;76250;48.718;9.000;2024-02-21T00:32:30;4.93;;;3.00;;
85807;SDS011;76250;48.718;9.000;2024-02-21T00:34:59;3.83;;;3.20;;
85807;SDS011;76250;48.718;9.000;2024-02-21T00:37:28;3.97;;;3.30;;
85807;SDS011;76250;48.718;9.000;2024-02-21T00:39:56;3.77;;;3.03;;
85807;SDS011;76250;48.718;9.000;2024-02-21T00:42:24;4.13;;;3.10;;
85807;SDS011;76250;48.718;9.000;2024-02-21T00:44:52;3.67;;;2.80;;
85807;SDS011;76250;48.718;9.000;2024-02-21T00:47:20;3.27;;;2.87;;
85807;SDS011;76250;48.718;9.000;2024-02-21T00:49:48;3.33;;;2.80;;
85807;SDS011;76250;48.718;9.000;2024-02-21T00:52:16;5.00;;;3.00;;
85807;SDS011;76250;48.718;9.000;2024-02-21T00:54:44;3.40;;;3.03;;
85807;SDS011;76250;48.718;9.000;2024-02-21T00:57:20;4.37;;;3.00;;
85807;SDS011;76250;48.718;9.000;2024-02-21T00:59:48;4.13;;;3.00;;
85807;SDS011;76250;48.718;9.000;2024-02-21T01:02:16;3.83;;;2.33;;
85807;SDS011;76250;48.718;9.000;2024-02-21T01:04:44;3.47;;;2.90;;
85807;SDS011;76250;48.718;9.000;2024-02-21T01:07:12;3.27;;;2.97;;
85807;SDS011;76250;48.718;9.000;2024-02-21T01:09:40;5.17;;;3.33;;
85807;SDS011;76250;48.718;9.000;2024-02-21T01:12:08;4.00;;;3.10;;
85807;SDS011;76250;48.718;9.000;2024-02-21T01:14:36;3.53;;;3.23;;
85807;SDS011;76250;48.718;9.000;2024-02-21T01:17:04;4.63;;;3.30;;
85807;SDS011;76250;48.718;9.000;2024-02-21T01:19:33;4.40;;;2.87;;
85807;SDS011;76250;48.718;9.000;2024-02-21T01:22:01;3.33;;;2.97;;
85807;SDS011;76250;48.718;9.000;2024-02-21T01:24:29;3.37;;;2.90;;
85807;SDS011;76250;48.718;9.000;2024-02-21T01:26:57;3.57;;;3.10;;
85807;SDS011;76250;48.718;9.000;2024-02-21T01:29:25;4.80;;;2.97;;
85807;SDS011;76250;48.718;9.000;2024-02-21T01:31:53;3.77;;;2.93;;
85807;SDS011;76250;48.718;9.000;2024-02-21T01:34:20;4.30;;;3.00;;
85807;SDS011;76250;48.718;9.000;2024-02-21T01:36:48;3.63;;;2.80;;
85807;SDS011;76250;48.718;9.000;2024-02-21T01:39:16;2.90;;;2.67;;
85807;SDS011;76250;48.718;9.000;2024-02-21T01:41:44;3.53;;;2.63;;
85807;SDS011;76250;48.718;9.000;2024-02-21T01:44:13;3.20;;;2.57;;
85807;SDS011;76250;48.718;9.000;2024-02-21T01:46:41;3.67;;;2.13;;
85807;SDS011;76250;48.718;9.000;2024-02-21T01:49:09;3.87;;;2.47;;
85807;SDS011;76250;48.718;9.000;2024-02-21T01:51:37;4.67;;;2.80;;
85807;SDS011;76250;48.718;9.000;2024-02-21T01:54:06;3.37;;;3.00;;
85807;SDS011;76250;48.718;9.000;2024-02-21T01:56:34;5.43;;;3.80;;
85807;SDS011;76250;48.718;9.000;2024-02-21T01:59:02;4.93;;;3.20;;
85807;SDS011;76250;48.718;9.000;2024-02-21T02:01:30;4.37;;;3.10;;
85807;SDS011;76250;48.718;9.000;2024-02-21T02:03:59;2.80;;;2.60;;
85807;SDS011;76250;48.718;9.000;2024-02-21T02:06:27;3.83;;;3.07;;
85807;SDS011;76250;48.718;9.000;2024-02-21T02:08:55;4.17;;;2.60;;
85807;SDS011;76250;48.718;9.000;2024-02-21T02:11:23;3.03;;;2.53;;
85807;SDS011;76250;48.718;9.000;2024-02-21T02:13:51;3.67;;;2.63;;
85807;SDS011;76250;48.718;9.000;2024-02-21T02:16:19;3.07;;;2.60;;
85807;SDS011;76250;48.718;9.000;2024-02-21T02:18:48;3.93;;;3.30;;
85807;SDS011;76250;48.718;9.000;2024-02-21T02:21:39;3.93;;;2.80;;
85807;SDS011;76250;48.718;9.000;2024-02-21T02:24:07;2.57;;;2.37;;
85807;SDS011;76250;48.718;9.000;2024-02-21T02:26:35;2.33;;;2.20;;
85807;SDS011;76250;48.718;9.000;2024-02-21T02:29:03;2.90;;;2.37;;
85807;SDS011;76250;48.718;9.000;2024-02-21T02:31:31;4.27;;;2.63;;
85807;SDS011;76250;48.718;9.000;2024-02-21T02:33:59;3.20;;;2.30;;
85807;SDS011;76250;48.718;9.000;2024-02-21T02:36:27;4.03;;;2.93;;
85807;SDS011;76250;48.718;9.000;2024-02-21T02:38:55;2.57;;;2.33;;
85807;SDS011;76250;48.718;9.000;2024-02-21T02:41:23;3.50;;;2.60;;
85807;SDS011;76250;48.718;9.000;2024-02-21T02:43:51;2.77;;;2.57;;
85807;SDS011;76250;48.718;9.000;2024-02-21T02:46:19;3.30;;;2.83;;
85807;SDS011;76250;48.718;9.000;2024-02-21T02:48:47;3.87;;;2.80;;
85807;SDS011;76250;48.718;9.000;2024-02-21T02:51:15;4.13;;;2.53;;
85807;SDS011;76250;48.718;9.000;2024-02-21T02:53:43;2.60;;;2.40;;
85807;SDS011;76250;48.718;9.000;2024-02-21T02:56:16;3.20;;;2.80;;
85807;SDS011;76250;48.718;9.000;2024-02-21T02:58:44;4.90;;;2.63;;
85807;SDS011;76250;48.718;9.000;2024-02-21T03:01:13;3.73;;;2.60;;
85807;SDS011;76250;48.718;9.000;2024-02-21T03:03:42;4.97;;;3.13;;
85807;SDS011;76250;48.718;9.000;2024-02-21T03:06:10;5.53;;;2.60;;
85807;SDS011;76250;48.718;9.000;2024-02-21T03:08:38;3.80;;;2.67;;
85807;SDS011;76250;48.718;9.000;2024-02-21T03:11:07;3.77;;;2.77;;
85807;SDS011;76250;48.718;9.000;2024-02-21T03:13:36;3.07;;;2.57;;
85807;SDS011;76250;48.718;9.000;2024-02-21T03:16:04;2.90;;;2.70;;
85807;SDS011;76250;48.718;9.000;2024-02-21T03:18:33;4.67;;;2.80;;
85807;SDS011;76250;48.718;9.000;2024-02-21T03:21:01;4.33;;;2.63;;
85807;SDS011;76250;48.718;9.000;2024-02-21T03:23:29;3.27;;;2.50;;
85807;SDS011;76250;48.718;9.000;2024-02-21T03:25:57;2.90;;;2.70;;
85807;SDS011;76250;48.718;9.000;2024-02-21T03:28:25;4.10;;;3.13;;
85807;SDS011;76250;48.718;9.000;2024-02-21T03:30:53;2.80;;;2.40;;
85807;SDS011;76250;48.718;9.000;2024-02-21T03:33:21;3.87;;;2.83;;
85807;SDS011;76250;48.718;9.000;2024-02-21T03:35:50;3.73;;;2.77;;
85807;SDS011;76250;48.718;9.000;2024-02-21T03:38:18;2.60;;;2.40;;
85807;SDS011;76250;48.718;9.000;2024-02-21T03:40:46;2.97;;;2.67;;
85807;SDS011;76250;48.718;9.000;2024-02-21T03:43:14;2.77;;;2.50;;
85807;SDS011;76250;48.718;9.000;2024-02-21T03:45:42;3.83;;;2.37;;
85807;SDS011;76250;48.718;9.000;2024-02-21T03:48:10;3.40;;;2.70;;
85807;SDS011;76250;48.718;9.000;2024-02-21T03:50:38;2.47;;;2.27;;
85807;SDS011;76250;48.718;9.000;2024-02-21T03:53:07;2.93;;;2.70;;
85807;SDS011;76250;48.718;9.000;2024-02-21T03:55:35;2.97;;;2.60;;
85807;SDS011;76250;48.718;9.000;2024-02-21T03:58:03;2.63;;;2.33;;
85807;SDS011;76250;48.718;9.000;2024-02-21T04:00:31;3.03;;;2.40;;
85807;SDS011;76250;48.718;9.000;2024-02-21T04:02:59;4.33;;;2.80;;
85807;SDS011;76250;48.718;9.000;2024-02-21T04:05:27;2.80;;;2.60;;
85807;SDS011;76250;48.718;9.000;2024-02-21T04:07:54;3.27;;;2.40;;
85807;SDS011;76250;48.718;9.000;2024-02-21T04:10:23;3.27;;;2.97;;
85807;SDS011;76250;48.718;9.000;2024-02-21T04:12:51;3.30;;;2.77;;
85807;SDS011;76250;48.718;9.000;2024-02-21T04:15:19;3.87;;;2.60;;
85807;SDS011;76250;48.718;9.000;2024-02-21T04:17:47;2.63;;;2.43;;
85807;SDS011;76250;48.718;9.000;2024-02-21T04:20:15;7.57;;;2.40;;
85807;SDS011;76250;48.718;9.000;2024-02-21T04:22:44;3.27;;;2.50;;
85807;SDS011;76250;48.718;9.000;2024-02-21T04:25:13;2.77;;;2.23;;
85807;SDS011;76250;48.718;9.000;2024-02-21T04:27:41;3.13;;;2.60;;
85807;SDS011;76250;48.718;9.000;2024-02-21T04:30:09;2.67;;;2.33;;
85807;SDS011;76250;48.718;9.000;2024-02-21T04:32:38;4.90;;;2.70;;
85807;SDS011;76250;48.718;9.000;2024-02-21T04:35:06;2.70;;;2.40;;
85807;SDS011;76250;48.718;9.000;2024-02-21T04:37:35;2.90;;;2.57;;
85807;SDS011;76250;48.718;9.000;2024-02-21T04:40:03;3.77;;;2.57;;
85807;SDS011;76250;48.718;9.000;2024-02-21T04:42:32;2.67;;;2.47;;
85807;SDS011;76250;48.718;9.000;2024-02-21T04:45:00;3.93;;;2.63;;
85807;SDS011;76250;48.718;9.000;2024-02-21T04:47:28;3.67;;;2.80;;
85807;SDS011;76250;48.718;9.000;2024-02-21T04:49:57;3.77;;;2.60;;
85807;SDS011;76250;48.718;9.000;2024-02-21T04:52:25;2.43;;;2.20;;
85807;SDS011;76250;48.718;9.000;2024-02-21T04:54:53;2.47;;;2.20;;
85807;SDS011;76250;48.718;9.000;2024-02-21T04:57:21;2.97;;;2.40;;
85807;SDS011;76250;48.718;9.000;2024-02-21T04:59:48;4.70;;;2.40;;
85807;SDS011;76250;48.718;9.000;2024-02-21T05:02:16;2.80;;;2.60;;
85807;SDS011;76250;48.718;9.000;2024-02-21T05:04:46;2.60;;;2.20;;
85807;SDS011;76250;48.718;9.000;2024-02-21T05:07:14;3.57;;;2.20;;
85807;SDS011;76250;48.718;9.000;2024-02-21T05:09:43;4.67;;;2.67;;
85807;SDS011;76250;48.718;9.000;2024-02-21T05:12:11;2.53;;;2.30;;
85807;SDS011;76250;48.718;9.000;2024-02-21T05:14:39;3.10;;;2.03;;
85807;SDS011;76250;48.718;9.000;2024-02-21T05:17:07;4.00;;;2.30;;
85807;SDS011;76250;48.718;9.000;2024-02-21T05:19:35;3.47;;;2.53;;
85807;SDS011;76250;48.718;9.000;2024-02-21T05:22:04;2.57;;;2.37;;
85807;SDS011;76250;48.718;9.000;2024-02-21T05:24:32;2.70;;;2.50;;
85807;SDS011;76250;48.718;9.000;2024-02-21T05:27:00;3.73;;;2.60;;
85807;SDS011;76250;48.718;9.000;2024-02-21T05:29:27;3.43;;;2.83;;
85807;SDS011;76250;48.718;9.000;2024-02-21T05:31:56;2.50;;;2.30;;
85807;SDS011;76250;48.718;9.000;2024-02-21T05:34:25;4.63;;;2.80;;
85807;SDS011;76250;48.718;9.000;2024-02-21T05:36:54;3.30;;;2.57;;
85807;SDS011;76250;48.718;9.000;2024-02-21T05:39:22;2.83;;;2.50;;
85807;SDS011;76250;48.718;9.000;2024-02-21T05:41:50;4.20;;;2.90;;
85807;SDS011;76250;48.718;9.000;2024-02-21T05:44:19;3.10;;;2.60;;
85807;SDS011;76250;48.718;9.000;2024-02-21T05:46:49;2.70;;;2.40;;
85807;SDS011;76250;48.718;9.000;2024-02-21T05:49:17;2.97;;;2.70;;
85807;SDS011;76250;48.718;9.000;2024-02-21T05:51:46;3.20;;;2.50;;
85807;SDS011;76250;48.718;9.000;2024-02-21T05:54:14;3.10;;;2.30;;
85807;SDS011;76250;48.718;9.000;2024-02-21T05:56:46;3.53;;;2.67;;
85807;SDS011;76250;48.718;9.000;2024-02-21T05:59:14;2.93;;;2.33;;
85807;SDS011;76250;48.718;9.000;2024-02-21T06:01:42;3.50;;;2.20;;
85807;SDS011;76250;48.718;9.000;2024-02-21T06:04:10;2.57;;;2.30;;
85807;SDS011;76250;48.718;9.000;2024-02-21T06:06:38;2.37;;;2.10;;
85807;SDS011;76250;48.718;9.000;2024-02-21T06:09:06;3.33;;;2.60;;
85807;SDS011;76250;48.718;9.000;2024-02-21T06:11:34;3.30;;;2.63;;
85807;SDS011;76250;48.718;9.000;2024-02-21T06:14:05;2.50;;;2.30;;
85807;SDS011;76250;48.718;9.000;2024-02-21T06:16:33;2.63;;;2.43;;
85807;SDS011;76250;48.718;9.000;2024-02-21T06:19:01;2.93;;;2.27;;
85807;SDS011;76250;48.718;9.000;2024-02-21T06:21:33;2.50;;;2.30;;
85807;SDS011;76250;48.718;9.000;2024-02-21T06:24:02;2.93;;;2.60;;
85807;SDS011;76250;48.718;9.000;2024-02-21T06:26:30;3.27;;;2.33;;
85807;SDS011;76250;48.718;9.000;2024-02-21T06:28:58;4.63;;;2.67;;
85807;SDS011;76250;48.718;9.000;2024-02-21T06:31:30;3.13;;;2.40;;
85807;SDS011;76250;48.718;9.000;2024-02-21T06:33:59;4.20;;;2.90;;
85807;SDS011;76250;48.718;9.000;2024-02-21T06:36:27;2.50;;;2.30;;
85807;SDS011;76250;48.718;9.000;2024-02-21T06:38:55;2.63;;;2.43;;
85807;SDS011;76250;48.718;9.000;2024-02-21T06:41:23;3.47;;;2.77;;
85807;SDS011;76250;48.718;9.000;2024-02-21T06:43:51;2.83;;;2.53;;
85807;SDS011;76250;48.718;9.000;2024-02-21T06:46:23;2.97;;;2.40;;
85807;SDS011;76250;48.718;9.000;2024-02-21T06:49:02;3.20;;;2.30;;
85807;SDS011;76250;48.718;9.000;2024-02-21T06:51:33;2.63;;;2.13;;
85807;SDS011;76250;48.718;9.000;2024-02-21T06:54:01;2.40;;;2.10;;
85807;SDS011;76250;48.718;9.000;2024-02-21T06:56:30;3.30;;;2.50;;
85807;SDS011;76250;48.718;9.000;2024-02-21T06:58:58;4.47;;;2.67;;
85807;SDS011;76250;48.718;9.000;2024-02-21T07:01:26;2.70;;;2.50;;
85807;SDS011;76250;48.718;9.000;2024-02-21T07:03:54;3.40;;;2.70;;
85807;SDS011;76250;48.718;9.000;2024-02-21T07:06:22;3.40;;;2.90;;
85807;SDS011;76250;48.718;9.000;2024-02-21T07:08:50;2.60;;;2.17;;
85807;SDS011;76250;48.718;9.000;2024-02-21T07:11:19;3.23;;;2.60;;
85807;SDS011;76250;48.718;9.000;2024-02-21T07:13:47;2.60;;;2.40;;
85807;SDS011;76250;48.718;9.000;2024-02-21T07:16:15;2.60;;;2.40;;
85807;SDS011;76250;48.718;9.000;2024-02-21T07:18:43;3.67;;;2.30;;
85807;SDS011;76250;48.718;9.000;2024-02-21T07:21:11;3.27;;;2.47;;
85807;SDS011;76250;48.718;9.000;2024-02-21T07:23:42;2.87;;;2.53;;
85807;SDS011;76250;48.718;9.000;2024-02-21T07:26:10;3.47;;;2.87;;
85807;SDS011;76250;48.718;9.000;2024-02-21T07:28:38;3.10;;;2.30;;
85807;SDS011;76250;48.718;9.000;2024-02-21T07:31:07;3.47;;;2.37;;
85807;SDS011;76250;48.718;9.000;2024-02-21T07:33:35;3.97;;;2.40;;
85807;SDS011;76250;48.718;9.000;2024-02-21T07:36:10;3.53;;;2.50;;
85807;SDS011;76250;48.718;9.000;2024-02-21T07:38:39;2.50;;;2.30;;
85807;SDS011;76250;48.718;9.000;2024-02-21T07:41:07;4.93;;;2.50;;
85807;SDS011;76250;48.718;9.000;2024-02-21T07:43:35;2.83;;;2.03;;
85807;SDS011;76250;48.718;9.000;2024-02-21T07:46:03;3.27;;;2.27;;
85807;SDS011;76250;48.718;9.000;2024-02-21T07:48:31;4.90;;;2.70;;
85807;SDS011;76250;48.718;9.000;2024-02-21T07:51:01;3.40;;;2.40;;
85807;SDS011;76250;48.718;9.000;2024-02-21T07:53:30;3.43;;;2.40;;
85807;SDS011;76250;48.718;9.000;2024-02-21T07:55:57;3.87;;;2.20;;
85807;SDS011;76250;48.718;9.000;2024-02-21T07:58:25;2.60;;;2.40;;
85807;SDS011;76250;48.718;9.000;2024-02-21T08:04:16;3.20;;;2.40;;
85807;SDS011;76250;48.718;9.000;2024-02-21T08:06:44;2.20;;;2.10;;
85807;SDS011;76250;48.718;9.000;2024-02-21T08:09:12;3.50;;;2.10;;
85807;SDS011;76250;48.718;9.000;2024-02-21T08:11:40;2.50;;;2.20;;
85807;SDS011;76250;48.718;9.000;2024-02-21T08:14:08;5.33;;;2.40;;
85807;SDS011;76250;48.718;9.000;2024-02-21T08:16:36;3.20;;;2.43;;
85807;SDS011;76250;48.718;9.000;2024-02-21T08:19:04;2.50;;;2.17;;
85807;SDS011;76250;48.718;9.000;2024-02-21T08:21:32;3.00;;;2.23;;
85807;SDS011;76250;48.718;9.000;2024-02-21T08:24:00;4.57;;;2.43;;
85807;SDS011;76250;48.718;9.000;2024-02-21T08:26:28;3.03;;;2.10;;
85807;SDS011;76250;48.718;9.000;2024-02-21T08:28:58;3.03;;;2.30;;
85807;SDS011;76250;48.718;9.000;2024-02-21T08:31:27;2.50;;;2.10;;
85807;SDS011;76250;48.718;9.000;2024-02-21T08:33:58;5.00;;;2.40;;
85807;SDS011;76250;48.718;9.000;2024-02-21T08:36:33;3.93;;;2.50;;
85807;SDS011;76250;48.718;9.000;2024-02-21T08:39:03;3.63;;;2.10;;
85807;SDS011;76250;48.718;9.000;2024-02-21T08:41:32;3.67;;;2.60;;
85807;SDS011;76250;48.718;9.000;2024-02-21T08:44:22;3.13;;;2.60;;
85807;SDS011;76250;48.718;9.000;2024-02-21T08:46:54;3.50;;;2.40;;
85807;SDS011;76250;48.718;9.000;2024-02-21T08:49:24;2.93;;;2.40;;
85807;SDS011;76250;48.718;9.000;2024-02-21T08:52:01;3.73;;;2.50;;
85807;SDS011;76250;48.718;9.000;2024-02-21T08:54:31;2.53;;;2.23;;
85807;SDS011;76250;48.718;9.000;2024-02-21T08:57:00;4.20;;;2.70;;
85807;SDS011;76250;48.718;9.000;2024-02-21T08:59:28;3.30;;;2.50;;
85807;SDS011;76250;48.718;9.000;2024-02-21T09:01:56;3.03;;;2.27;;
85807;SDS011;76250;48.718;9.000;2024-02-21T09:04:24;3.80;;;2.43;;
85807;SDS011;76250;48.718;9.000;2024-02-21T09:06:52;2.90;;;2.60;;
85807;SDS011;76250;48.718;9.000;2024-02-21T09:09:20;2.27;;;2.07;;
85807;SDS011;76250;48.718;9.000;2024-02-21T09:11:48;4.17;;;2.23;;
85807;SDS011;76250;48.718;9.000;2024-02-21T09:14:16;3.03;;;2.10;;
85807;SDS011;76250;48.718;9.000;2024-02-21T09:16:44;3.77;;;2.50;;
85807;SDS011;76250;48.718;9.000;2024-02-21T09:19:12;3.20;;;2.43;;
85807;SDS011;76250;48.718;9.000;2024-02-21T09:21:41;3.50;;;2.30;;
85807;SDS011;76250;48.718;9.000;2024-02-21T09:24:09;4.23;;;2.57;;
85807;SDS011;76250;48.718;9.000;2024-02-21T09:26:36;2.70;;;2.00;;
85807;SDS011;76250;48.718;9.000;2024-02-21T09:29:04;2.77;;;2.30;;
85807;SDS011;76250;48.718;9.000;2024-02-21T09:31:32;3.47;;;2.40;;
85807;SDS011;76250;48.718;9.000;2024-02-21T09:34:01;4.63;;;2.57;;
85807;SDS011;76250;48.718;9.000;2024-02-21T09:36:30;3.63;;;2.13;;
85807;SDS011;76250;48.718;9.000;2024-02-21T09:38:58;3.50;;;2.30;;
85807;SDS011;76250;48.718;9.000;2024-02-21T09:41:26;3.80;;;2.20;;
85807;SDS011;76250;48.718;9.000;2024-02-21T09:43:55;3.43;;;2.50;;
85807;SDS011;76250;48.718;9.000;2024-02-21T09:49:24;3.23;;;2.30;;
85807;SDS011;76250;48.718;9.000;2024-02-21T09:52:01;3.23;;;2.67;;
85807;SDS011;76250;48.718;9.000;2024-02-21T09:54:34;2.10;;;1.90;;
85807;SDS011;76250;48.718;9.000;2024-02-21T09:57:03;3.37;;;2.30;;
85807;SDS011;76250;48.718;9.000;2024-02-21T09:59:33;2.77;;;2.10;;
85807;SDS011;76250;48.718;9.000;2024-02-21T10:02:01;2.53;;;2.00;;
85807;SDS011;76250;48.718;9.000;2024-02-21T10:04:30;2.70;;;2.20;;
85807;SDS011;76250;48.718;9.000;2024-02-21T10:06:59;2.80;;;2.50;;
85807;SDS011;76250;48.718;9.000;2024-02-21T10:09:28;2.70;;;2.20;;
85807;SDS011;76250;48.718;9.000;2024-02-21T10:12:07;2.70;;;2.40;;
85807;SDS011;76250;48.718;9.000;2024-02-21T10:14:37;2.90;;;2.17;;
85807;SDS011;76250;48.718;9.000;2024-02-21T10:17:06;3.90;;;2.50;;
85807;SDS011;76250;48.718;9.000;2024-02-21T10:19:38;2.90;;;2.17;;
85807;SDS011;76250;48.718;9.000;2024-02-21T10:22:09;3.07;;;2.23;;
85807;SDS011;76250;48.718;9.000;2024-02-21T10:24:38;2.87;;;2.60;;
85807;SDS011;76250;48.718;9.000;2024-02-21T10:27:09;2.50;;;2.30;;
85807;SDS011;76250;48.718;9.000;2024-02-21T10:29:40;2.77;;;2.40;;
85807;SDS011;76250;48.718;9.000;2024-02-21T10:32:10;2.67;;;2.47;;
85807;SDS011;76250;48.718;9.000;2024-02-21T10:34:40;3.40;;;2.47;;
85807;SDS011;76250;48.718;9.000;2024-02-21T10:37:11;2.73;;;2.20;;
85807;SDS011;76250;48.718;9.000;2024-02-21T10:39:40;2.73;;;1.93;;
85807;SDS011;76250;48.718;9.000;2024-02-21T10:42:12;2.20;;;1.97;;
85807;SDS011;76250;48.718;9.000;2024-02-21T10:44:44;2.13;;;1.90;;
85807;SDS011;76250;48.718;9.000;2024-02-21T10:47:18;3.83;;;2.17;;
85807;SDS011;76250;48.718;9.000;2024-02-21T10:49:53;3.50;;;1.90;;
85807;SDS011;76250;48.718;9.000;2024-02-21T10:55:41;2.43;;;2.23;;
85807;SDS011;76250;48.718;9.000;2024-02-21T10:58:15;2.53;;;2.00;;
85807;SDS011;76250;48.718;9.000;2024-02-21T11:00:43;1.93;;;1.80;;
85807;SDS011;76250;48.718;9.000;2024-02-21T11:03:13;2.57;;;1.67;;
85807;SDS011;76250;48.718;9.000;2024-02-21T11:05:41;2.40;;;1.97;;
85807;SDS011;76250;48.718;9.000;2024-02-21T11:08:12;2.03;;;1.83;;
85807;SDS011;76250;48.718;9.000;2024-02-21T11:10:45;4.03;;;2.13;;
85807;SDS011;76250;48.718;9.000;2024-02-21T11:13:13;2.00;;;1.87;;
85807;SDS011;76250;48.718;9.000;2024-02-21T11:15:41;2.40;;;1.70;;
85807;SDS011;76250;48.718;9.000;2024-02-21T11:18:10;1.70;;;1.60;;
85807;SDS011;76250;48.718;9.000;2024-02-21T11:20:38;2.73;;;1.97;;
85807;SDS011;76250;48.718;9.000;2024-02-21T11:23:06;2.10;;;1.80;;
85807;SDS011;76250;48.718;9.000;2024-02-21T11:25:34;2.27;;;1.70;;
85807;SDS011;76250;48.718;9.000;2024-02-21T11:28:03;2.53;;;1.97;;
85807;SDS011;76250;48.718;9.000;2024-02-21T11:30:32;2.43;;;2.13;;
85807;SDS011;76250;48.718;9.000;2024-02-21T11:33:06;2.73;;;1.70;;
85807;SDS011;76250;48.718;9.000;2024-02-21T11:35:35;4.03;;;2.00;;
85807;SDS011;76250;48.718;9.000;2024-02-21T11:38:14;3.20;;;1.77;;
85807;SDS011;76250;48.718;9.000;2024-02-21T11:40:44;2.00;;;1.80;;
85807;SDS011;76250;48.718;9.000;2024-02-21T11:43:15;1.80;;;1.50;;
85807;SDS011;76250;48.718;9.000;2024-02-21T11:45:44;2.27;;;1.63;;
85807;SDS011;76250;48.718;9.000;2024-02-21T11:48:12;3.00;;;1.60;;
85807;SDS011;76250;48.718;9.000;2024-02-21T11:50:40;2.27;;;1.50;;
85807;SDS011;76250;48.718;9.000;2024-02-21T11:53:09;3.47;;;1.77;;
85807;SDS011;76250;48.718;9.000;2024-02-21T11:55:37;2.67;;;1.90;;
85807;SDS011;76250;48.718;9.000;2024-02-21T11:58:05;2.53;;;1.93;;
85807;SDS011;76250;48.718;9.000;2024-02-21T12:00:33;1.50;;;1.40;;
85807;SDS011;76250;48.718;9.000;2024-02-21T12:03:01;2.37;;;1.80;;
85807;SDS011;76250;48.718;9.000;2024-02-21T12:05:30;1.97;;;1.80;;
85807;SDS011;76250;48.718;9.000;2024-02-21T12:07:59;3.10;;;1.53;;
85807;SDS011;76250;48.718;9.000;2024-02-21T12:10:28;2.57;;;2.07;;
85807;SDS011;76250;48.718;9.000;2024-02-21T12:13:08;2.40;;;1.70;;
85807;SDS011;76250;48.718;9.000;2024-02-21T12:15:38;3.50;;;1.90;;
85807;SDS011;76250;48.718;9.000;2024-02-21T12:18:09;2.97;;;1.70;;
85807;SDS011;76250;48.718;9.000;2024-02-21T12:20:38;1.83;;;1.70;;
85807;SDS011;76250;48.718;9.000;2024-02-21T12:23:10;1.60;;;1.50;;
85807;SDS011;76250;48.718;9.000;2024-02-21T12:25:38;3.40;;;1.73;;
85807;SDS011;76250;48.718;9.000;2024-02-21T12:28:07;1.97;;;1.70;;
85807;SDS011;76250;48.718;9.000;2024-02-21T12:30:35;1.77;;;1.40;;
85807;SDS011;76250;48.718;9.000;2024-02-21T12:33:06;1.80;;;1.50;;
85807;SDS011;76250;48.718;9.000;2024-02-21T12:35:34;1.50;;;1.37;;
85807;SDS011;76250;48.718;9.000;2024-02-21T12:38:02;1.60;;;1.50;;
85807;SDS011;76250;48.718;9.000;2024-02-21T12:40:30;2.33;;;1.67;;
85807;SDS011;76250;48.718;9.000;2024-02-21T12:43:00;1.50;;;1.40;;
85807;SDS011;76250;48.718;9.000;2024-02-21T12:45:30;1.53;;;1.40;;
85807;SDS011;76250;48.718;9.000;2024-02-21T12:47:58;1.87;;;1.60;;
85807;SDS011;76250;48.718;9.000;2024-02-21T12:50:26;2.90;;;1.67;;
85807;SDS011;76250;48.718;9.000;2024-02-21T12:52:54;1.80;;;1.60;;
85807;SDS011;76250;48.718;9.000;2024-02-21T12:55:22;1.67;;;1.40;;
85807;SDS011;76250;48.718;9.000;2024-02-21T12:57:50;1.43;;;1.33;;
85807;SDS011;76250;48.718;9.000;2024-02-21T13:00:18;1.57;;;1.43;;
85807;SDS011;76250;48.718;9.000;2024-02-21T13:02:48;1.60;;;1.37;;
85807;SDS011;76250;48.718;9.000;2024-02-21T13:05:16;1.37;;;1.27;;
85807;SDS011;76250;48.718;9.000;2024-02-21T13:07:44;1.60;;;1.50;;
85807;SDS011;76250;48.718;9.000;2024-02-21T13:10:12;1.10;;;1.10;;
85807;SDS011;76250;48.718;9.000;2024-02-21T13:12:41;1.90;;;1.40;;
85807;SDS011;76250;48.718;9.000;2024-02-21T13:15:09;2.77;;;1.60;;
85807;SDS011;76250;48.718;9.000;2024-02-21T13:17:39;1.37;;;1.27;;
85807;SDS011;76250;48.718;9.000;2024-02-21T13:20:07;1.43;;;1.33;;
85807;SDS011;76250;48.718;9.000;2024-02-21T13:22:38;1.37;;;1.27;;
85807;SDS011;76250;48.718;9.000;2024-02-21T13:25:06;1.37;;;1.27;;
85807;SDS011;76250;48.718;9.000;2024-02-21T13:27:34;1.67;;;1.27;;
85807;SDS011;76250;48.718;9.000;2024-02-21T13:30:03;1.30;;;1.20;;
85807;SDS011;76250;48.718;9.000;2024-02-21T13:32:33;1.10;;;1.10;;
85807;SDS011;76250;48.718;9.000;2024-02-21T13:35:01;1.50;;;1.40;;
85807;SDS011;76250;48.718;9.000;2024-02-21T13:37:31;2.20;;;1.60;;
85807;SDS011;76250;48.718;9.000;2024-02-21T13:39:59;1.30;;;1.20;;
85807;SDS011;76250;48.718;9.000;2024-02-21T13:42:27;1.00;;;1.00;;
85807;SDS011;76250;48.718;9.000;2024-02-21T13:44:55;1.30;;;1.20;;
85807;SDS011;76250;48.718;9.000;2024-02-21T13:47:23;1.60;;;1.40;;
85807;SDS011;76250;48.718;9.000;2024-02-21T13:49:51;1.40;;;1.30;;
85807;SDS011;76250;48.718;9.000;2024-02-21T13:52:19;1.83;;;1.40;;
85807;SDS011;76250;48.718;9.000;2024-02-21T13:54:49;1.50;;;1.40;;
85807;SDS011;76250;48.718;9.000;2024-02-21T13:57:17;1.30;;;1.20;;
85807;SDS011;76250;48.718;9.000;2024-02-21T13:59:45;1.33;;;1.23;;
85807;SDS011;76250;48.718;9.000;2024-02-21T14:02:13;1.40;;;1.30;;
85807;SDS011;76250;48.718;9.000;2024-02-21T14:04:41;1.33;;;1.23;;
85807;SDS011;76250;48.718;9.000;2024-02-21T14:07:09;2.03;;;1.50;;
85807;SDS011;76250;48.718;9.000;2024-02-21T14:09:37;1.43;;;1.30;;
85807;SDS011;76250;48.718;9.000;2024-02-21T14:12:05;1.63;;;1.50;;
85807;SDS011;76250;48.718;9.000;2024-02-21T14:14:35;1.37;;;1.27;;
85807;SDS011;76250;48.718;9.000;2024-02-21T14:17:06;1.30;;;1.20;;
85807;SDS011;76250;48.718;9.000;2024-02-21T14:19:34;1.10;;;1.10;;
85807;SDS011;76250;48.718;9.000;2024-02-21T14:22:02;1.10;;;1.10;;
85807;SDS011;76250;48.718;9.000;2024-02-21T14:24:30;2.17;;;1.30;;
85807;SDS011;76250;48.718;9.000;2024-02-21T14:26:59;1.00;;;1.00;;
85807;SDS011;76250;48.718;9.000;2024-02-21T14:29:27;1.67;;;0.90;;
85807;SDS011;76250;48.718;9.000;2024-02-21T14:31:56;1.30;;;1.20;;
85807;SDS011;76250;48.718;9.000;2024-02-21T14:34:24;1.30;;;1.20;;
85807;SDS011;76250;48.718;9.000;2024-02-21T14:36:54;2.33;;;1.30;;
85807;SDS011;76250;48.718;9.000;2024-02-21T14:39:22;1.37;;;1.30;;
85807;SDS011;76250;48.718;9.000;2024-02-21T14:41:50;1.17;;;1.10;;
85807;SDS011;76250;48.718;9.000;2024-02-21T14:44:18;1.10;;;1.10;;
85807;SDS011;76250;48.718;9.000;2024-02-21T14:46:46;1.30;;;1.20;;
85807;SDS011;76250;48.718;9.000;2024-02-21T14:49:14;1.47;;;1.10;;
85807;SDS011;76250;48.718;9.000;2024-02-21T14:51:47;1.40;;;1.30;;
85807;SDS011;76250;48.718;9.000;2024-02-21T14:54:15;1.50;;;1.27;;
85807;SDS011;76250;48.718;9.000;2024-02-21T14:56:43;1.33;;;1.20;;
85807;SDS011;76250;48.718;9.000;2024-02-21T14:59:17;1.60;;;1.37;;
85807;SDS011;76250;48.718;9.000;2024-02-21T15:01:59;1.40;;;1.30;;
85807;SDS011;76250;48.718;9.000;2024-02-21T15:04:27;1.63;;;1.27;;
85807;SDS011;76250;48.718;9.000;2024-02-21T15:06:55;1.20;;;1.20;;